sensor_id;sensor_type;location;lat;lon;timestamp;pressure;altitude;pressure_sealevel;temperature;humidity
6395;BME280;3230;42.588;23.358;2022-08-20T00:00:21;90895.88;;;22.60;73.79
6395;BME280;3230;42.588;23.358;2022-08-20T00:02:50;90888.84;;;22.52;74.24
6395;BME280;3230;42.588;23.358;2022-08-20T00:05:20;90897.00;;;22.59;73.60
6395;BME280;3230;42.588;23.358;2022-08-20T00:07:46;90889.00;;;22.59;73.87
6395;BME280;3230;42.588;23.358;2022-08-20T00:10:11;90892.78;;;22.58;73.91
6395;BME280;3230;42.588;23.358;2022-08-20T00:12:37;90888.78;;;22.68;72.90
6395;BME280;3230;42.588;23.358;2022-08-20T00:15:07;90889.84;;;22.63;73.39
6395;BME280;3230;42.588;23.358;2022-08-20T00:17:32;90892.16;;;22.65;73.15
6395;BME280;3230;42.588;23.358;2022-08-20T00:20:11;90892.16;;;22.65;73.40
6395;BME280;3230;42.588;23.358;2022-08-20T00:22:37;90893.78;;;22.70;72.88
6395;BME280;3230;42.588;23.358;2022-08-20T00:25:07;90893.19;;;22.60;74.00
6395;BME280;3230;42.588;23.358;2022-08-20T00:27:33;90897.00;;;22.59;73.88
6395;BME280;3230;42.588;23.358;2022-08-20T00:29:58;90893.56;;;22.59;73.51
6395;BME280;3230;42.588;23.358;2022-08-20T00:32:23;90888.00;;;22.67;72.73
6395;BME280;3230;42.588;23.358;2022-08-20T00:34:49;90879.91;;;22.64;74.09
6395;BME280;3230;42.588;23.358;2022-08-20T00:37:15;90890.81;;;22.55;74.02
6395;BME280;3230;42.588;23.358;2022-08-20T00:39:40;90883.84;;;22.50;74.42
6395;BME280;3230;42.588;23.358;2022-08-20T00:42:07;90890.50;;;22.41;74.42
6395;BME280;3230;42.588;23.358;2022-08-20T00:44:33;90895.59;;;22.46;74.78
6395;BME280;3230;42.588;23.358;2022-08-20T00:46:59;90894.84;;;22.29;76.28
6395;BME280;3230;42.588;23.358;2022-08-20T00:49:27;90888.81;;;22.32;75.14
6395;BME280;3230;42.588;23.358;2022-08-20T00:52:12;90883.03;;;22.30;75.74
6395;BME280;3230;42.588;23.358;2022-08-20T00:54:46;90883.13;;;22.34;75.29
6395;BME280;3230;42.588;23.358;2022-08-20T00:59:48;90878.31;;;22.24;75.70
6395;BME280;3230;42.588;23.358;2022-08-20T01:02:15;90877.97;;;22.25;75.38
6395;BME280;3230;42.588;23.358;2022-08-20T01:04:42;90872.22;;;22.23;75.78
6395;BME280;3230;42.588;23.358;2022-08-20T01:07:15;90870.22;;;22.20;75.95
6395;BME280;3230;42.588;23.358;2022-08-20T01:09:46;90858.50;;;22.25;75.89
6395;BME280;3230;42.588;23.358;2022-08-20T01:12:13;90857.31;;;22.22;76.19
6395;BME280;3230;42.588;23.358;2022-08-20T01:14:40;90858.28;;;22.14;77.00
6395;BME280;3230;42.588;23.358;2022-08-20T01:17:10;90854.97;;;22.01;77.46
6395;BME280;3230;42.588;23.358;2022-08-20T01:19:43;90851.25;;;22.06;77.43
6395;BME280;3230;42.588;23.358;2022-08-20T01:22:13;90845.41;;;22.00;76.39
6395;BME280;3230;42.588;23.358;2022-08-20T01:25:08;90835.47;;;21.81;77.98
6395;BME280;3230;42.588;23.358;2022-08-20T01:27:36;90852.81;;;21.91;78.39
6395;BME280;3230;42.588;23.358;2022-08-20T01:30:04;90848.00;;;21.96;78.37
6395;BME280;3230;42.588;23.358;2022-08-20T01:32:30;90848.69;;;21.93;77.63
6395;BME280;3230;42.588;23.358;2022-08-20T01:34:55;90844.06;;;21.90;77.68
6395;BME280;3230;42.588;23.358;2022-08-20T01:37:20;90844.75;;;21.87;78.07
6395;BME280;3230;42.588;23.358;2022-08-20T01:39:46;90838.72;;;21.90;77.21
6395;BME280;3230;42.588;23.358;2022-08-20T01:42:31;90846.84;;;21.78;78.81
6395;BME280;3230;42.588;23.358;2022-08-20T01:45:00;90838.50;;;21.79;78.73
6395;BME280;3230;42.588;23.358;2022-08-20T01:47:30;90843.66;;;21.72;78.70
6395;BME280;3230;42.588;23.358;2022-08-20T01:50:26;90837.56;;;21.71;79.34
6395;BME280;3230;42.588;23.358;2022-08-20T01:53:14;90837.56;;;21.71;79.11
6395;BME280;3230;42.588;23.358;2022-08-20T01:55:41;90831.44;;;21.71;79.29
6395;BME280;3230;42.588;23.358;2022-08-20T01:58:06;90822.59;;;21.67;79.28
6395;BME280;3230;42.588;23.358;2022-08-20T02:00:32;90821.13;;;21.69;79.68
6395;BME280;3230;42.588;23.358;2022-08-20T02:03:00;90824.75;;;21.61;79.72
6395;BME280;3230;42.588;23.358;2022-08-20T02:05:28;90822.84;;;21.62;79.80
6395;BME280;3230;42.588;23.358;2022-08-20T02:07:53;90829.25;;;21.57;79.81
6395;BME280;3230;42.588;23.358;2022-08-20T02:10:21;90825.19;;;21.63;79.44
6395;BME280;3230;42.588;23.358;2022-08-20T02:12:48;90824.56;;;21.54;80.44
6395;BME280;3230;42.588;23.358;2022-08-20T02:15:13;90829.44;;;21.52;80.80
6395;BME280;3230;42.588;23.358;2022-08-20T02:17:39;90812.09;;;21.26;81.46
6395;BME280;3230;42.588;23.358;2022-08-20T02:20:08;90814.34;;;21.24;82.05
6395;BME280;3230;42.588;23.358;2022-08-20T02:22:39;90812.91;;;21.11;83.34
6395;BME280;3230;42.588;23.358;2022-08-20T02:25:08;90819.34;;;21.25;82.89
6395;BME280;3230;42.588;23.358;2022-08-20T02:27:34;90822.59;;;21.19;82.29
6395;BME280;3230;42.588;23.358;2022-08-20T02:30:01;90812.81;;;21.23;81.82
6395;BME280;3230;42.588;23.358;2022-08-20T02:32:27;90815.66;;;21.14;83.06
6395;BME280;3230;42.588;23.358;2022-08-20T02:34:53;90805.94;;;21.22;81.50
6395;BME280;3230;42.588;23.358;2022-08-20T02:37:18;90814.44;;;21.28;80.76
6395;BME280;3230;42.588;23.358;2022-08-20T02:39:45;90810.72;;;21.32;80.62
6395;BME280;3230;42.588;23.358;2022-08-20T02:42:11;90814.69;;;21.38;80.66
6395;BME280;3230;42.588;23.358;2022-08-20T02:44:38;90810.63;;;21.29;81.70
6395;BME280;3230;42.588;23.358;2022-08-20T02:47:04;90817.34;;;21.22;81.24
6395;BME280;3230;42.588;23.358;2022-08-20T02:49:30;90815.72;;;21.34;81.12
6395;BME280;3230;42.588;23.358;2022-08-20T02:51:55;90816.13;;;21.36;80.88
6395;BME280;3230;42.588;23.358;2022-08-20T02:54:21;90818.47;;;21.37;81.15
6395;BME280;3230;42.588;23.358;2022-08-20T02:56:46;90821.47;;;21.36;81.05
6395;BME280;3230;42.588;23.358;2022-08-20T02:59:11;90826.81;;;21.36;81.19
6395;BME280;3230;42.588;23.358;2022-08-20T03:01:37;90824.50;;;21.34;81.27
6395;BME280;3230;42.588;23.358;2022-08-20T03:04:03;90826.38;;;21.34;80.62
6395;BME280;3230;42.588;23.358;2022-08-20T03:06:29;90825.34;;;21.38;80.95
6395;BME280;3230;42.588;23.358;2022-08-20T03:08:54;90824.03;;;21.32;80.59
6395;BME280;3230;42.588;23.358;2022-08-20T03:11:20;90823.97;;;21.45;80.22
6395;BME280;3230;42.588;23.358;2022-08-20T03:13:46;90821.03;;;21.50;80.10
6395;BME280;3230;42.588;23.358;2022-08-20T03:16:12;90821.47;;;21.52;80.58
6395;BME280;3230;42.588;23.358;2022-08-20T03:18:42;90824.00;;;21.61;79.35
6395;BME280;3230;42.588;23.358;2022-08-20T03:21:08;90824.22;;;21.55;79.76
6395;BME280;3230;42.588;23.358;2022-08-20T03:23:34;90825.25;;;21.51;81.29
6395;BME280;3230;42.588;23.358;2022-08-20T03:26:03;90823.78;;;21.53;80.42
6395;BME280;3230;42.588;23.358;2022-08-20T03:28:28;90819.50;;;21.49;80.35
6395;BME280;3230;42.588;23.358;2022-08-20T03:30:54;90817.69;;;21.53;80.23
6395;BME280;3230;42.588;23.358;2022-08-20T03:33:21;90810.66;;;21.45;80.96
6395;BME280;3230;42.588;23.358;2022-08-20T03:35:47;90823.97;;;21.45;80.83
6395;BME280;3230;42.588;23.358;2022-08-20T03:38:14;90822.44;;;21.44;81.91
6395;BME280;3230;42.588;23.358;2022-08-20T03:40:40;90829.81;;;21.34;82.20
6395;BME280;3230;42.588;23.358;2022-08-20T03:43:07;90816.50;;;21.34;81.38
6395;BME280;3230;42.588;23.358;2022-08-20T03:45:34;90820.38;;;21.21;81.45
6395;BME280;3230;42.588;23.358;2022-08-20T03:48:01;90819.78;;;21.28;80.78
6395;BME280;3230;42.588;23.358;2022-08-20T03:50:29;90825.03;;;21.24;81.70
6395;BME280;3230;42.588;23.358;2022-08-20T03:52:55;90822.59;;;21.19;82.41
6395;BME280;3230;42.588;23.358;2022-08-20T03:55:23;90817.53;;;21.14;82.80
6395;BME280;3230;42.588;23.358;2022-08-20T03:57:52;90821.91;;;21.22;82.90
6395;BME280;3230;42.588;23.358;2022-08-20T04:00:24;90826.44;;;21.21;82.51
6395;BME280;3230;42.588;23.358;2022-08-20T04:02:51;90826.38;;;21.18;82.37
6395;BME280;3230;42.588;23.358;2022-08-20T04:05:16;90827.16;;;21.18;83.15
6395;BME280;3230;42.588;23.358;2022-08-20T04:07:42;90823.63;;;21.30;82.66
6395;BME280;3230;42.588;23.358;2022-08-20T04:10:10;90825.59;;;21.17;82.65
6395;BME280;3230;42.588;23.358;2022-08-20T04:12:36;90822.09;;;21.13;82.87
6395;BME280;3230;42.588;23.358;2022-08-20T04:17:31;90825.50;;;21.62;82.24
6395;BME280;3230;42.588;23.358;2022-08-20T04:19:57;90818.47;;;21.69;81.71
6395;BME280;3230;42.588;23.358;2022-08-20T04:22:22;90821.03;;;21.82;81.31
6395;BME280;3230;42.588;23.358;2022-08-20T04:24:48;90824.38;;;21.79;81.73
6395;BME280;3230;42.588;23.358;2022-08-20T04:27:14;90817.94;;;21.99;82.29
6395;BME280;3230;42.588;23.358;2022-08-20T04:29:40;90824.81;;;22.36;81.36
6395;BME280;3230;42.588;23.358;2022-08-20T04:32:07;90819.59;;;22.59;79.26
6395;BME280;3230;42.588;23.358;2022-08-20T04:34:33;90820.75;;;22.81;80.10
6395;BME280;3230;42.588;23.358;2022-08-20T04:36:58;90808.03;;;23.18;79.25
6395;BME280;3230;42.588;23.358;2022-08-20T04:39:24;90815.81;;;23.50;77.86
6395;BME280;3230;42.588;23.358;2022-08-20T04:41:49;90819.47;;;23.91;77.14
6395;BME280;3230;42.588;23.358;2022-08-20T04:44:15;90818.78;;;24.86;74.93
6395;BME280;3230;42.588;23.358;2022-08-20T04:46:41;90827.19;;;25.26;74.32
6395;BME280;3230;42.588;23.358;2022-08-20T04:49:07;90829.63;;;26.46;69.46
6395;BME280;3230;42.588;23.358;2022-08-20T04:51:33;90831.84;;;27.39;61.82
6395;BME280;3230;42.588;23.358;2022-08-20T04:53:59;90826.88;;;27.63;62.26
6395;BME280;3230;42.588;23.358;2022-08-20T04:56:28;90832.16;;;28.53;60.42
6395;BME280;3230;42.588;23.358;2022-08-20T04:58:56;90833.31;;;28.56;60.21
6395;BME280;3230;42.588;23.358;2022-08-20T05:01:22;90831.28;;;28.96;59.04
6395;BME280;3230;42.588;23.358;2022-08-20T05:03:48;90827.13;;;30.04;53.13
6395;BME280;3230;42.588;23.358;2022-08-20T05:06:15;90827.63;;;29.84;53.61
6395;BME280;3230;42.588;23.358;2022-08-20T05:08:42;90835.75;;;31.03;47.53
6395;BME280;3230;42.588;23.358;2022-08-20T05:11:08;90832.03;;;31.24;48.65
6395;BME280;3230;42.588;23.358;2022-08-20T05:13:34;90836.28;;;31.52;47.59
6395;BME280;3230;42.588;23.358;2022-08-20T05:16:00;90840.63;;;31.46;48.33
6395;BME280;3230;42.588;23.358;2022-08-20T05:18:27;90840.81;;;31.32;50.39
6395;BME280;3230;42.588;23.358;2022-08-20T05:20:53;90834.47;;;31.97;48.33
6395;BME280;3230;42.588;23.358;2022-08-20T05:23:19;90837.31;;;32.13;48.37
6395;BME280;3230;42.588;23.358;2022-08-20T05:25:47;90831.44;;;32.42;44.07
6395;BME280;3230;42.588;23.358;2022-08-20T05:28:27;90839.50;;;32.90;43.11
6395;BME280;3230;42.588;23.358;2022-08-20T05:30:58;90837.16;;;33.08;42.47
6395;BME280;3230;42.588;23.358;2022-08-20T05:33:24;90830.16;;;33.47;40.59
6395;BME280;3230;42.588;23.358;2022-08-20T05:35:53;90817.63;;;33.54;40.56
6395;BME280;3230;42.588;23.358;2022-08-20T05:38:22;90814.25;;;33.99;38.73
6395;BME280;3230;42.588;23.358;2022-08-20T05:40:48;90813.75;;;34.96;37.16
6395;BME280;3230;42.588;23.358;2022-08-20T05:43:13;90824.59;;;35.26;36.76
6395;BME280;3230;42.588;23.358;2022-08-20T05:45:41;90825.53;;;35.06;35.96
6395;BME280;3230;42.588;23.358;2022-08-20T05:48:13;90816.56;;;34.93;36.88
6395;BME280;3230;42.588;23.358;2022-08-20T05:50:40;90831.06;;;36.22;35.06
6395;BME280;3230;42.588;23.358;2022-08-20T05:53:07;90822.50;;;36.33;34.00
6395;BME280;3230;42.588;23.358;2022-08-20T05:55:33;90824.44;;;35.97;35.24
6395;BME280;3230;42.588;23.358;2022-08-20T05:58:04;90814.00;;;36.31;33.99
6395;BME280;3230;42.588;23.358;2022-08-20T06:00:31;90813.28;;;36.88;33.19
6395;BME280;3230;42.588;23.358;2022-08-20T06:02:57;90812.31;;;37.48;31.43
6395;BME280;3230;42.588;23.358;2022-08-20T06:05:42;90807.44;;;37.74;31.10
6395;BME280;3230;42.588;23.358;2022-08-20T06:08:09;90810.28;;;37.17;34.25
6395;BME280;3230;42.588;23.358;2022-08-20T06:10:35;90813.03;;;37.71;31.95
6395;BME280;3230;42.588;23.358;2022-08-20T06:13:01;90816.88;;;38.33;31.41
6395;BME280;3230;42.588;23.358;2022-08-20T06:15:28;90823.44;;;38.45;31.23
6395;BME280;3230;42.588;23.358;2022-08-20T06:17:54;90825.34;;;38.16;29.94
6395;BME280;3230;42.588;23.358;2022-08-20T06:20:20;90823.38;;;38.26;31.45
6395;BME280;3230;42.588;23.358;2022-08-20T06:22:45;90833.06;;;38.08;31.76
6395;BME280;3230;42.588;23.358;2022-08-20T06:25:10;90824.44;;;37.79;32.25
6395;BME280;3230;42.588;23.358;2022-08-20T06:27:37;90833.66;;;38.91;30.73
6395;BME280;3230;42.588;23.358;2022-08-20T06:30:04;90833.50;;;38.85;31.26
6395;BME280;3230;42.588;23.358;2022-08-20T06:32:30;90834.53;;;38.41;31.92
6395;BME280;3230;42.588;23.358;2022-08-20T06:34:55;90833.16;;;38.46;31.66
6395;BME280;3230;42.588;23.358;2022-08-20T06:37:24;90830.19;;;39.79;28.82
6395;BME280;3230;42.588;23.358;2022-08-20T06:39:50;90830.63;;;38.89;30.06
6395;BME280;3230;42.588;23.358;2022-08-20T06:42:17;90832.56;;;39.44;29.73
6395;BME280;3230;42.588;23.358;2022-08-20T06:44:44;90835.06;;;40.18;28.66
6395;BME280;3230;42.588;23.358;2022-08-20T06:47:12;90836.00;;;39.63;30.28
6395;BME280;3230;42.588;23.358;2022-08-20T06:49:39;90841.47;;;39.63;29.76
6395;BME280;3230;42.588;23.358;2022-08-20T06:52:04;90835.41;;;40.59;28.08
6395;BME280;3230;42.588;23.358;2022-08-20T06:54:30;90838.88;;;40.11;28.50
6395;BME280;3230;42.588;23.358;2022-08-20T06:56:56;90836.91;;;40.36;27.80
6395;BME280;3230;42.588;23.358;2022-08-20T06:59:22;90839.03;;;40.17;27.87
6395;BME280;3230;42.588;23.358;2022-08-20T07:01:47;90835.94;;;39.81;29.27
6395;BME280;3230;42.588;23.358;2022-08-20T07:04:14;90836.59;;;40.10;27.93
6395;BME280;3230;42.588;23.358;2022-08-20T07:06:40;90835.56;;;39.98;28.54
6395;BME280;3230;42.588;23.358;2022-08-20T07:09:06;90825.28;;;38.94;30.26
6395;BME280;3230;42.588;23.358;2022-08-20T07:11:32;90827.91;;;39.78;28.67
6395;BME280;3230;42.588;23.358;2022-08-20T07:14:00;90825.00;;;40.06;28.22
6395;BME280;3230;42.588;23.358;2022-08-20T07:16:28;90822.09;;;40.43;28.34
6395;BME280;3230;42.588;23.358;2022-08-20T07:18:54;90828.22;;;40.13;28.36
6395;BME280;3230;42.588;23.358;2022-08-20T07:21:19;90820.09;;;39.33;29.72
6395;BME280;3230;42.588;23.358;2022-08-20T07:23:45;90818.19;;;39.68;28.73
6395;BME280;3230;42.588;23.358;2022-08-20T07:26:13;90816.63;;;40.09;29.31
6395;BME280;3230;42.588;23.358;2022-08-20T07:28:39;90818.47;;;40.03;29.39
6395;BME280;3230;42.588;23.358;2022-08-20T07:31:04;90820.59;;;40.66;28.33
6395;BME280;3230;42.588;23.358;2022-08-20T07:33:48;90815.50;;;40.25;29.16
6395;BME280;3230;42.588;23.358;2022-08-20T07:36:14;90820.47;;;41.00;26.92
6395;BME280;3230;42.588;23.358;2022-08-20T07:38:40;90816.69;;;40.58;27.94
6395;BME280;3230;42.588;23.358;2022-08-20T07:41:08;90808.56;;;39.72;28.91
6395;BME280;3230;42.588;23.358;2022-08-20T07:43:34;90820.34;;;39.97;29.85
6395;BME280;3230;42.588;23.358;2022-08-20T07:46:02;90816.78;;;40.06;30.00
6395;BME280;3230;42.588;23.358;2022-08-20T07:48:34;90818.47;;;40.12;30.17
6395;BME280;3230;42.588;23.358;2022-08-20T07:51:02;90810.00;;;39.92;29.66
6395;BME280;3230;42.588;23.358;2022-08-20T07:53:29;90816.97;;;40.99;27.66
6395;BME280;3230;42.588;23.358;2022-08-20T07:55:55;90816.38;;;41.19;27.62
6395;BME280;3230;42.588;23.358;2022-08-20T07:58:21;90813.94;;;40.58;28.60
6395;BME280;3230;42.588;23.358;2022-08-20T08:00:48;90810.41;;;41.66;26.77
6395;BME280;3230;42.588;23.358;2022-08-20T08:03:14;90811.91;;;41.22;27.99
6395;BME280;3230;42.588;23.358;2022-08-20T08:05:42;90817.88;;;41.95;26.13
6395;BME280;3230;42.588;23.358;2022-08-20T08:08:13;90820.53;;;41.90;26.94
6395;BME280;3230;42.588;23.358;2022-08-20T08:10:42;90812.31;;;42.46;25.46
6395;BME280;3230;42.588;23.358;2022-08-20T08:13:12;90812.38;;;41.65;27.34
6395;BME280;3230;42.588;23.358;2022-08-20T08:15:40;90815.19;;;41.86;26.20
6395;BME280;3230;42.588;23.358;2022-08-20T08:18:17;90812.28;;;41.75;26.22
6395;BME280;3230;42.588;23.358;2022-08-20T08:20:47;90806.88;;;41.35;27.74
6395;BME280;3230;42.588;23.358;2022-08-20T08:23:17;90810.84;;;41.04;28.12
6395;BME280;3230;42.588;23.358;2022-08-20T08:25:42;90797.03;;;41.14;26.85
6395;BME280;3230;42.588;23.358;2022-08-20T08:28:08;90803.38;;;41.20;27.26
6395;BME280;3230;42.588;23.358;2022-08-20T08:30:42;90802.19;;;41.51;27.96
6395;BME280;3230;42.588;23.358;2022-08-20T08:33:26;90797.25;;;40.86;27.33
6395;BME280;3230;42.588;23.358;2022-08-20T08:35:54;90794.69;;;39.76;28.57
6395;BME280;3230;42.588;23.358;2022-08-20T08:38:20;90804.94;;;40.33;28.27
6395;BME280;3230;42.588;23.358;2022-08-20T08:40:54;90798.31;;;40.64;29.19
6395;BME280;3230;42.588;23.358;2022-08-20T08:43:22;90805.06;;;41.02;28.20
6395;BME280;3230;42.588;23.358;2022-08-20T08:46:04;90784.41;;;41.37;27.98
6395;BME280;3230;42.588;23.358;2022-08-20T08:48:34;90786.59;;;40.39;27.78
6395;BME280;3230;42.588;23.358;2022-08-20T08:51:03;90779.72;;;40.20;28.14
6395;BME280;3230;42.588;23.358;2022-08-20T08:53:35;90780.69;;;40.07;28.86
6395;BME280;3230;42.588;23.358;2022-08-20T08:56:03;90779.94;;;39.73;29.13
6395;BME280;3230;42.588;23.358;2022-08-20T08:58:29;90775.00;;;39.44;29.72
6395;BME280;3230;42.588;23.358;2022-08-20T09:00:55;90764.91;;;38.89;30.85
6395;BME280;3230;42.588;23.358;2022-08-20T09:03:27;90768.66;;;38.07;33.21
6395;BME280;3230;42.588;23.358;2022-08-20T09:05:57;90762.94;;;37.42;33.06
6395;BME280;3230;42.588;23.358;2022-08-20T09:08:32;90763.31;;;37.32;33.15
6395;BME280;3230;42.588;23.358;2022-08-20T09:11:06;90769.56;;;36.08;36.06
6395;BME280;3230;42.588;23.358;2022-08-20T09:13:32;90764.28;;;35.40;38.79
6395;BME280;3230;42.588;23.358;2022-08-20T09:15:58;90757.09;;;34.49;40.84
6395;BME280;3230;42.588;23.358;2022-08-20T09:18:23;90758.63;;;34.04;41.80
6395;BME280;3230;42.588;23.358;2022-08-20T09:20:49;90763.97;;;33.74;43.63
6395;BME280;3230;42.588;23.358;2022-08-20T09:23:14;90760.38;;;33.44;43.01
6395;BME280;3230;42.588;23.358;2022-08-20T09:25:39;90757.91;;;32.97;45.92
6395;BME280;3230;42.588;23.358;2022-08-20T09:28:05;90757.19;;;32.76;48.69
6395;BME280;3230;42.588;23.358;2022-08-20T09:30:30;90751.47;;;32.50;47.03
6395;BME280;3230;42.588;23.358;2022-08-20T09:32:59;90756.06;;;32.10;47.44
6395;BME280;3230;42.588;23.358;2022-08-20T09:35:25;90753.00;;;32.51;47.02
6395;BME280;3230;42.588;23.358;2022-08-20T09:37:51;90745.22;;;32.53;47.24
6395;BME280;3230;42.588;23.358;2022-08-20T09:40:18;90744.50;;;32.49;46.55
6395;BME280;3230;42.588;23.358;2022-08-20T09:42:43;90745.69;;;32.28;47.11
6395;BME280;3230;42.588;23.358;2022-08-20T09:45:10;90741.97;;;32.18;47.37
6395;BME280;3230;42.588;23.358;2022-08-20T09:47:36;90743.34;;;32.06;46.78
6395;BME280;3230;42.588;23.358;2022-08-20T09:50:02;90747.91;;;31.89;47.91
6395;BME280;3230;42.588;23.358;2022-08-20T09:52:33;90742.09;;;31.64;48.21
6395;BME280;3230;42.588;23.358;2022-08-20T09:55:02;90735.38;;;31.48;48.65
6395;BME280;3230;42.588;23.358;2022-08-20T09:57:29;90735.84;;;31.43;49.14
6395;BME280;3230;42.588;23.358;2022-08-20T10:00:01;90735.13;;;31.66;50.19
6395;BME280;3230;42.588;23.358;2022-08-20T10:02:28;90739.88;;;31.82;47.67
6395;BME280;3230;42.588;23.358;2022-08-20T10:04:53;90737.66;;;31.77;47.58
6395;BME280;3230;42.588;23.358;2022-08-20T10:07:19;90739.00;;;31.65;48.76
6395;BME280;3230;42.588;23.358;2022-08-20T10:09:44;90745.09;;;31.73;48.10
6395;BME280;3230;42.588;23.358;2022-08-20T10:12:10;90744.19;;;31.80;46.83
6395;BME280;3230;42.588;23.358;2022-08-20T10:14:35;90742.22;;;31.56;48.72
6395;BME280;3230;42.588;23.358;2022-08-20T10:17:01;90742.16;;;31.87;47.64
6395;BME280;3230;42.588;23.358;2022-08-20T10:19:28;90728.00;;;31.76;47.78
6395;BME280;3230;42.588;23.358;2022-08-20T10:21:54;90736.81;;;32.04;46.80
6395;BME280;3230;42.588;23.358;2022-08-20T10:24:21;90728.81;;;31.97;45.97
6395;BME280;3230;42.588;23.358;2022-08-20T10:26:47;90726.75;;;31.81;45.44
6395;BME280;3230;42.588;23.358;2022-08-20T10:29:14;90725.88;;;31.87;47.60
6395;BME280;3230;42.588;23.358;2022-08-20T10:31:40;90726.09;;;31.97;44.64
6395;BME280;3230;42.588;23.358;2022-08-20T10:34:05;90731.19;;;32.15;46.29
6395;BME280;3230;42.588;23.358;2022-08-20T10:36:31;90731.25;;;32.11;45.41
6395;BME280;3230;42.588;23.358;2022-08-20T10:38:56;90728.19;;;32.09;44.38
6395;BME280;3230;42.588;23.358;2022-08-20T10:41:21;90727.28;;;31.96;43.50
6395;BME280;3230;42.588;23.358;2022-08-20T10:43:47;90723.06;;;31.95;43.57
6395;BME280;3230;42.588;23.358;2022-08-20T10:46:13;90713.72;;;31.96;43.69
6395;BME280;3230;42.588;23.358;2022-08-20T10:48:39;90718.50;;;32.12;43.39
6395;BME280;3230;42.588;23.358;2022-08-20T10:51:05;90715.97;;;32.01;42.70
6395;BME280;3230;42.588;23.358;2022-08-20T10:53:30;90709.88;;;32.37;43.35
6395;BME280;3230;42.588;23.358;2022-08-20T10:55:56;90704.63;;;32.50;41.38
6395;BME280;3230;42.588;23.358;2022-08-20T10:58:23;90707.41;;;32.46;41.00
6395;BME280;3230;42.588;23.358;2022-08-20T11:00:48;90707.09;;;32.61;42.74
6395;BME280;3230;42.588;23.358;2022-08-20T11:03:14;90709.00;;;32.44;43.31
6395;BME280;3230;42.588;23.358;2022-08-20T11:05:39;90710.84;;;32.47;42.53
6395;BME280;3230;42.588;23.358;2022-08-20T11:08:05;90707.53;;;32.39;43.21
6395;BME280;3230;42.588;23.358;2022-08-20T11:10:32;90709.22;;;32.33;40.54
6395;BME280;3230;42.588;23.358;2022-08-20T11:12:59;90716.50;;;32.36;42.26
6395;BME280;3230;42.588;23.358;2022-08-20T11:15:25;90720.34;;;32.39;39.47
6395;BME280;3230;42.588;23.358;2022-08-20T11:17:51;90708.16;;;32.47;39.88
6395;BME280;3230;42.588;23.358;2022-08-20T11:20:18;90707.44;;;32.83;38.31
6395;BME280;3230;42.588;23.358;2022-08-20T11:22:45;90701.44;;;32.92;38.96
6395;BME280;3230;42.588;23.358;2022-08-20T11:25:11;90702.28;;;32.68;38.75
6395;BME280;3230;42.588;23.358;2022-08-20T11:27:39;90697.56;;;33.09;38.66
6395;BME280;3230;42.588;23.358;2022-08-20T11:30:07;90697.69;;;33.39;39.70
6395;BME280;3230;42.588;23.358;2022-08-20T11:32:34;90682.25;;;33.36;38.91
6395;BME280;3230;42.588;23.358;2022-08-20T11:34:59;90672.13;;;33.20;38.99
6395;BME280;3230;42.588;23.358;2022-08-20T11:37:25;90674.31;;;33.08;40.08
6395;BME280;3230;42.588;23.358;2022-08-20T11:39:51;90666.34;;;33.01;41.32
6395;BME280;3230;42.588;23.358;2022-08-20T11:42:16;90663.78;;;32.94;41.91
6395;BME280;3230;42.588;23.358;2022-08-20T11:44:42;90670.56;;;32.85;41.01
6395;BME280;3230;42.588;23.358;2022-08-20T11:47:10;90668.28;;;32.64;40.90
6395;BME280;3230;42.588;23.358;2022-08-20T11:49:43;90655.03;;;32.49;41.17
6395;BME280;3230;42.588;23.358;2022-08-20T11:52:08;90661.34;;;32.63;42.12
6395;BME280;3230;42.588;23.358;2022-08-20T11:54:34;90678.69;;;32.85;40.84
6395;BME280;3230;42.588;23.358;2022-08-20T11:57:00;90670.25;;;33.00;41.37
6395;BME280;3230;42.588;23.358;2022-08-20T11:59:26;90676.03;;;33.02;41.37
6395;BME280;3230;42.588;23.358;2022-08-20T12:01:52;90665.00;;;33.09;39.27
6395;BME280;3230;42.588;23.358;2022-08-20T12:04:20;90671.72;;;32.48;42.21
6395;BME280;3230;42.588;23.358;2022-08-20T12:06:45;90675.06;;;32.35;41.94
6395;BME280;3230;42.588;23.358;2022-08-20T12:09:11;90657.06;;;32.05;42.26
6395;BME280;3230;42.588;23.358;2022-08-20T12:11:36;90663.13;;;31.69;43.49
6395;BME280;3230;42.588;23.358;2022-08-20T12:14:02;90663.28;;;31.82;41.84
6395;BME280;3230;42.588;23.358;2022-08-20T12:16:27;90656.34;;;31.57;44.98
6395;BME280;3230;42.588;23.358;2022-08-20T12:18:53;90662.78;;;31.19;46.65
6395;BME280;3230;42.588;23.358;2022-08-20T12:21:18;90666.94;;;30.97;45.48
6395;BME280;3230;42.588;23.358;2022-08-20T12:23:44;90676.59;;;30.98;46.19
6395;BME280;3230;42.588;23.358;2022-08-20T12:26:09;90687.34;;;30.43;48.17
6395;BME280;3230;42.588;23.358;2022-08-20T12:28:35;90697.78;;;30.10;52.12
6395;BME280;3230;42.588;23.358;2022-08-20T12:31:00;90709.06;;;29.59;58.59
6395;BME280;3230;42.588;23.358;2022-08-20T12:33:26;90707.00;;;29.25;69.32
6395;BME280;3230;42.588;23.358;2022-08-20T12:35:51;90708.44;;;28.88;73.45
6395;BME280;3230;42.588;23.358;2022-08-20T12:38:17;90722.28;;;28.90;67.67
6395;BME280;3230;42.588;23.358;2022-08-20T12:40:43;90717.34;;;28.74;64.93
6395;BME280;3230;42.588;23.358;2022-08-20T12:43:08;90717.31;;;28.81;72.38
6395;BME280;3230;42.588;23.358;2022-08-20T12:45:35;90713.47;;;28.79;73.14
6395;BME280;3230;42.588;23.358;2022-08-20T12:48:04;90697.78;;;28.55;74.59
6395;BME280;3230;42.588;23.358;2022-08-20T12:50:30;90700.41;;;28.74;75.91
6395;BME280;3230;42.588;23.358;2022-08-20T12:52:56;90687.38;;;28.68;70.48
6395;BME280;3230;42.588;23.358;2022-08-20T12:55:21;90682.34;;;28.63;72.84
6395;BME280;3230;42.588;23.358;2022-08-20T12:57:52;90682.31;;;28.70;70.99
6395;BME280;3230;42.588;23.358;2022-08-20T13:00:22;90674.31;;;28.56;74.30
6395;BME280;3230;42.588;23.358;2022-08-20T13:02:49;90669.72;;;28.53;76.09
6395;BME280;3230;42.588;23.358;2022-08-20T13:05:15;90661.06;;;28.87;73.25
6395;BME280;3230;42.588;23.358;2022-08-20T13:07:42;90648.03;;;29.27;71.48
6395;BME280;3230;42.588;23.358;2022-08-20T13:10:11;90629.16;;;29.65;71.65
6395;BME280;3230;42.588;23.358;2022-08-20T13:12:36;90622.75;;;29.90;58.08
6395;BME280;3230;42.588;23.358;2022-08-20T13:15:02;90631.63;;;29.91;68.03